Time;durP1;ratioP1;P1;durP2;ratioP2;P2;SDS_P1;SDS_P2;PMS_P1;PMS_P2;Temp;Humidity;BMP_temperature;BMP_pressure;BME280_temperature;BME280_humidity;BME280_pressure;Samples;Min_cycle;Max_cycle;Signal;HPM_P1;HPM_P2
2022/09/28 00:01:17;;;;;;;5.45;1.70;;;;;;;;;;5071844;28;20017;-64
2022/09/28 00:03:44;;;;;;;3.35;1.42;;;;;;;;;;5069773;28;20037;-62
2022/09/28 00:06:11;;;;;;;3.92;1.60;;;;;;;;;;5072710;28;20032;-63
2022/09/28 00:08:37;;;;;;;4.43;1.83;;;;;;;;;;5071095;28;20032;-63
2022/09/28 00:11:05;;;;;;;4.30;1.90;;;;;;;;;;5075488;28;20440;-62
2022/09/28 00:13:32;;;;;;;5.05;1.50;;;;;;;;;;5071381;28;20105;-64
2022/09/28 00:16:03;;;;;;;5.65;2.10;;;;;;;;;;5068834;28;20067;-64
2022/09/28 00:18:29;;;;;;;6.40;2.17;;;;;;;;;;5072852;28;20040;-66
2022/09/28 00:21:07;;;;;;;5.15;1.70;;;;;;;;;;5067414;28;20033;-62
2022/09/28 00:24:11;;;;;;;4.55;1.95;;;;;;;;;;5071306;28;20037;-65
2022/09/28 00:26:20;;;;;;;6.43;1.95;;;;;;;;;;5068502;28;20078;-63
2022/09/28 00:28:46;;;;;;;5.43;1.95;;;;;;;;;;5071140;28;20060;-62
2022/09/28 00:31:12;;;;;;;4.00;1.60;;;;;;;;;;5066337;28;20044;-63
2022/09/28 00:33:39;;;;;;;5.15;2.15;;;;;;;;;;5066015;28;20449;-63
2022/09/28 00:36:05;;;;;;;8.60;2.13;;;;;;;;;;5070424;28;20046;-64
2022/09/28 00:38:31;;;;;;;6.20;2.17;;;;;;;;;;5083069;28;20025;-62
2022/09/28 00:40:58;;;;;;;3.80;1.80;;;;;;;;;;5070608;28;20020;-62
2022/09/28 00:43:24;;;;;;;7.72;2.00;;;;;;;;;;5090294;28;20461;-65
2022/09/28 00:46:02;;;;;;;6.63;2.30;;;;;;;;;;5066476;28;20115;-61
2022/09/28 00:48:32;;;;;;;7.80;3.08;;;;;;;;;;5075304;28;20039;-63
2022/09/28 00:51:01;;;;;;;7.40;3.42;;;;;;;;;;5066736;28;20035;-64
2022/09/28 00:53:33;;;;;;;7.35;2.95;;;;;;;;;;5071736;28;20430;-62
2022/09/28 00:56:10;;;;;;;9.13;2.88;;;;;;;;;;5079446;28;20427;-63
2022/09/28 00:58:40;;;;;;;8.82;2.63;;;;;;;;;;5067537;28;20059;-64
2022/09/28 01:01:07;;;;;;;4.63;2.55;;;;;;;;;;5068117;28;20107;-62
2022/09/28 01:03:33;;;;;;;5.47;3.00;;;;;;;;;;5074111;28;20472;-62
2022/09/28 01:06:03;;;;;;;10.43;3.17;;;;;;;;;;5071798;28;20123;-62
2022/09/28 01:08:33;;;;;;;5.70;2.60;;;;;;;;;;5071967;28;20559;-63
2022/09/28 01:10:59;;;;;;;8.43;2.50;;;;;;;;;;5072966;28;20074;-63
2022/09/28 01:13:27;;;;;;;6.20;2.95;;;;;;;;;;5070850;28;20036;-61
2022/09/28 01:16:06;;;;;;;7.90;2.90;;;;;;;;;;5072654;28;20028;-63
2022/09/28 01:19:16;;;;;;;5.78;2.80;;;;;;;;;;5070300;28;20044;-62
2022/09/28 01:21:58;;;;;;;8.30;2.95;;;;;;;;;;5047738;28;20044;-61
2022/09/28 01:24:46;;;;;;;8.52;2.83;;;;;;;;;;5064042;28;20033;-61
2022/09/28 01:27:40;;;;;;;15.68;3.42;;;;;;;;;;5073485;28;20029;-61
2022/09/28 01:30:14;;;;;;;10.40;3.85;;;;;;;;;;5080233;28;20518;-61
2022/09/28 01:32:46;;;;;;;11.73;3.10;;;;;;;;;;5069592;28;20043;-61
2022/09/28 01:35:21;;;;;;;10.07;3.05;;;;;;;;;;5070429;28;20051;-61
2022/09/28 01:37:53;;;;;;;15.65;3.33;;;;;;;;;;5085953;28;20032;-61
2022/09/28 01:40:25;;;;;;;23.55;3.35;;;;;;;;;;5064179;28;20028;-62
2022/09/28 01:42:57;;;;;;;12.82;3.35;;;;;;;;;;5062933;28;20032;-62
2022/09/28 01:45:29;;;;;;;9.43;3.42;;;;;;;;;;5071330;28;20129;-62
2022/09/28 01:47:59;;;;;;;8.67;3.23;;;;;;;;;;5078443;28;20097;-62
2022/09/28 01:50:29;;;;;;;11.73;3.50;;;;;;;;;;5089841;28;20273;-62
2022/09/28 01:53:08;;;;;;;10.57;2.97;;;;;;;;;;5090383;28;20056;-63
2022/09/28 01:55:41;;;;;;;8.30;2.70;;;;;;;;;;5068122;28;20043;-62
2022/09/28 01:58:12;;;;;;;11.70;2.83;;;;;;;;;;5071263;28;20111;-62
2022/09/28 02:00:43;;;;;;;10.18;3.10;;;;;;;;;;5085186;28;20669;-62
2022/09/28 02:03:35;;;;;;;8.10;2.22;;;;;;;;;;5091602;28;20036;-64
2022/09/28 02:06:11;;;;;;;7.75;2.67;;;;;;;;;;5091411;28;20089;-62
2022/09/28 02:08:44;;;;;;;8.70;2.90;;;;;;;;;;5092870;28;20115;-62
2022/09/28 02:11:13;;;;;;;10.45;3.22;;;;;;;;;;5091203;28;20032;-62
2022/09/28 02:13:41;;;;;;;8.77;3.22;;;;;;;;;;5091191;28;20030;-62
2022/09/28 02:16:36;;;;;;;11.60;3.65;;;;;;;;;;5078636;28;20036;-61
2022/09/28 02:19:03;;;;;;;10.82;3.25;;;;;;;;;;5069806;28;20045;-62
2022/09/28 02:21:41;;;;;;;9.27;3.05;;;;;;;;;;5065991;28;20402;-61
2022/09/28 02:24:19;;;;;;;7.35;3.10;;;;;;;;;;5051823;28;20041;-62
2022/09/28 02:26:48;;;;;;;15.82;4.03;;;;;;;;;;5050714;28;20215;-62
2022/09/28 02:29:14;;;;;;;10.63;3.08;;;;;;;;;;5050656;28;20387;-62
2022/09/28 02:31:40;;;;;;;7.95;3.30;;;;;;;;;;5050368;28;20037;-62
2022/09/28 02:34:06;;;;;;;8.75;3.85;;;;;;;;;;5051789;28;20052;-62
2022/09/28 02:36:33;;;;;;;10.60;3.55;;;;;;;;;;5050590;28;20346;-62
2022/09/28 02:39:01;;;;;;;8.70;3.42;;;;;;;;;;5050775;28;20111;-62
2022/09/28 02:41:41;;;;;;;6.40;3.55;;;;;;;;;;5051612;28;20124;-62
2022/09/28 02:44:26;;;;;;;9.93;3.22;;;;;;;;;;5050448;28;20032;-61
2022/09/28 02:47:07;;;;;;;9.60;3.53;;;;;;;;;;5050149;28;20033;-62
2022/09/28 02:50:11;;;;;;;13.05;4.30;;;;;;;;;;5050319;28;20082;-61
2022/09/28 02:52:57;;;;;;;5.43;2.88;;;;;;;;;;5051583;28;20029;-61
2022/09/28 02:55:50;;;;;;;10.93;3.28;;;;;;;;;;5051638;28;20544;-62
2022/09/28 02:58:35;;;;;;;12.43;3.78;;;;;;;;;;5051483;28;20208;-62
2022/09/28 03:01:23;;;;;;;9.63;3.78;;;;;;;;;;5050440;28;20447;-62
2022/09/28 03:04:00;;;;;;;9.10;3.63;;;;;;;;;;5050752;28;20036;-62
2022/09/28 03:06:47;;;;;;;10.90;3.65;;;;;;;;;;5054087;28;20029;-62
2022/09/28 03:09:26;;;;;;;12.77;4.18;;;;;;;;;;5054466;28;20084;-62
2022/09/28 03:12:00;;;;;;;9.45;3.35;;;;;;;;;;5055465;28;20124;-62
2022/09/28 03:14:26;;;;;;;6.40;3.20;;;;;;;;;;5054338;28;20045;-62
2022/09/28 03:16:55;;;;;;;7.53;3.17;;;;;;;;;;5054640;28;20074;-63
2022/09/28 03:19:26;;;;;;;12.68;3.40;;;;;;;;;;5055583;28;20071;-63
2022/09/28 03:21:52;;;;;;;11.27;3.58;;;;;;;;;;5055495;28;20044;-62
2022/09/28 03:24:18;;;;;;;6.57;3.75;;;;;;;;;;5054047;28;20031;-62
2022/09/28 03:26:44;;;;;;;8.73;2.90;;;;;;;;;;5054080;28;20112;-65
2022/09/28 03:29:12;;;;;;;6.43;3.25;;;;;;;;;;5037452;28;20051;-61
2022/09/28 03:31:38;;;;;;;7.28;3.20;;;;;;;;;;5053877;28;20029;-62
2022/09/28 03:34:05;;;;;;;9.70;3.45;;;;;;;;;;5053882;28;20033;-62
2022/09/28 03:36:31;;;;;;;10.32;4.53;;;;;;;;;;5054095;28;20067;-62
2022/09/28 03:38:58;;;;;;;14.98;5.18;;;;;;;;;;5054271;28;20095;-62
2022/09/28 03:41:26;;;;;;;10.82;3.72;;;;;;;;;;5053992;28;20052;-61
2022/09/28 03:43:53;;;;;;;7.80;3.30;;;;;;;;;;5054042;28;20029;-62
2022/09/28 03:46:21;;;;;;;8.32;3.53;;;;;;;;;;5053787;28;20037;-62
2022/09/28 03:48:50;;;;;;;6.90;3.78;;;;;;;;;;5053816;28;20025;-63
2022/09/28 03:51:16;;;;;;;14.15;4.72;;;;;;;;;;5053883;28;20037;-62
2022/09/28 03:53:42;;;;;;;15.18;4.93;;;;;;;;;;5059851;28;20043;-61
2022/09/28 03:56:12;;;;;;;17.40;4.95;;;;;;;;;;5073771;28;20075;-62
2022/09/28 03:58:38;;;;;;;13.85;4.97;;;;;;;;;;5058294;28;20487;-62
2022/09/28 04:01:14;;;;;;;14.07;4.07;;;;;;;;;;5057505;28;20387;-62
2022/09/28 04:03:41;;;;;;;10.43;4.50;;;;;;;;;;5074105;28;20033;-63
2022/09/28 04:06:08;;;;;;;10.10;3.92;;;;;;;;;;5073786;28;20032;-64
2022/09/28 04:08:34;;;;;;;12.90;4.22;;;;;;;;;;5068695;28;20044;-63
2022/09/28 04:11:00;;;;;;;13.80;4.68;;;;;;;;;;5053694;28;20029;-63
2022/09/28 04:13:28;;;;;;;12.57;5.65;;;;;;;;;;5053753;28;20037;-62
2022/09/28 04:15:56;;;;;;;18.40;6.65;;;;;;;;;;5066299;28;20032;-63
2022/09/28 04:18:23;;;;;;;18.90;6.30;;;;;;;;;;5061509;28;20539;-62
2022/09/28 04:21:27;;;;;;;11.77;4.38;;;;;;;;;;5042066;28;20032;-63
2022/09/28 04:23:59;;;;;;;23.35;6.38;;;;;;;;;;5023920;28;20033;-63
2022/09/28 04:26:26;;;;;;;17.42;4.10;;;;;;;;;;5033807;28;20033;-63
2022/09/28 04:31:44;;;;;;;14.55;5.13;;;;;;;;;;5053472;28;20035;-63
2022/09/28 04:34:16;;;;;;;15.43;4.10;;;;;;;;;;5053725;28;20053;-64
2022/09/28 04:36:43;;;;;;;10.50;4.40;;;;;;;;;;5063827;28;20037;-68
2022/09/28 04:39:14;;;;;;;18.35;5.85;;;;;;;;;;5054892;28;20029;-68
2022/09/28 04:41:46;;;;;;;17.63;5.60;;;;;;;;;;5063096;28;20391;-67
2022/09/28 04:44:12;;;;;;;10.18;3.90;;;;;;;;;;5069651;28;20115;-67
2022/09/28 04:46:37;;;;;;;10.02;3.47;;;;;;;;;;5063084;28;20116;-69
2022/09/28 04:49:23;;;;;;;10.23;3.67;;;;;;;;;;5073926;28;20132;-67
2022/09/28 04:52:38;;;;;;;10.80;3.65;;;;;;;;;;5069048;28;20033;-71
2022/09/28 04:55:24;;;;;;;9.13;3.40;;;;;;;;;;5071689;28;20048;-71
2022/09/28 04:57:50;;;;;;;11.93;3.83;;;;;;;;;;5071291;28;20044;-71
2022/09/28 05:00:16;;;;;;;23.90;4.55;;;;;;;;;;5074312;28;20055;-70
2022/09/28 05:02:53;;;;;;;10.38;3.58;;;;;;;;;;5075062;28;20578;-68
2022/09/28 05:05:43;;;;;;;15.30;3.63;;;;;;;;;;5091551;28;20430;-71
2022/09/28 05:08:28;;;;;;;9.50;4.25;;;;;;;;;;5072241;28;20095;-70
2022/09/28 05:10:59;;;;;;;8.57;3.78;;;;;;;;;;5055041;28;20144;-69
2022/09/28 05:13:25;;;;;;;9.50;3.30;;;;;;;;;;5072150;28;20036;-70
2022/09/28 05:15:53;;;;;;;13.15;4.45;;;;;;;;;;5072216;28;20040;-70
2022/09/28 05:18:26;;;;;;;10.90;3.97;;;;;;;;;;5073946;28;20046;-70
2022/09/28 05:21:00;;;;;;;14.10;4.78;;;;;;;;;;5073787;28;20047;-70
2022/09/28 05:23:26;;;;;;;10.43;3.47;;;;;;;;;;5073557;28;20036;-71
2022/09/28 05:25:55;;;;;;;9.23;4.18;;;;;;;;;;5071306;28;20044;-71
2022/09/28 05:28:29;;;;;;;8.63;4.25;;;;;;;;;;5072136;28;20142;-70
2022/09/28 05:31:27;;;;;;;8.35;2.97;;;;;;;;;;5061306;28;20079;-71
2022/09/28 05:34:13;;;;;;;7.40;2.83;;;;;;;;;;5057784;28;20044;-69
2022/09/28 05:36:41;;;;;;;5.80;2.40;;;;;;;;;;5053751;28;20382;-71
2022/09/28 05:39:08;;;;;;;7.68;2.85;;;;;;;;;;5072038;28;20031;-70
2022/09/28 05:41:34;;;;;;;10.40;2.75;;;;;;;;;;5072470;28;20033;-69
2022/09/28 05:44:00;;;;;;;13.73;2.85;;;;;;;;;;5073558;28;20479;-70
2022/09/28 05:46:28;;;;;;;9.95;2.50;;;;;;;;;;5072002;28;20540;-69
2022/09/28 05:48:58;;;;;;;4.90;2.40;;;;;;;;;;5071984;28;20033;-69
2022/09/28 05:51:24;;;;;;;5.70;2.67;;;;;;;;;;5072248;28;20051;-68
2022/09/28 05:53:54;;;;;;;9.70;2.75;;;;;;;;;;5072257;28;20494;-68
2022/09/28 05:56:21;;;;;;;7.28;2.33;;;;;;;;;;5071880;28;20036;-68
2022/09/28 05:58:48;;;;;;;5.43;2.58;;;;;;;;;;5072068;28;20490;-67
2022/09/28 06:01:16;;;;;;;4.93;2.50;;;;;;;;;;5071791;28;20028;-69
2022/09/28 06:03:43;;;;;;;5.82;2.53;;;;;;;;;;5071712;28;20050;-69
2022/09/28 06:06:09;;;;;;;13.15;3.45;;;;;;;;;;5070655;28;20044;-67
2022/09/28 06:08:36;;;;;;;8.55;2.40;;;;;;;;;;5071453;28;20109;-67
2022/09/28 06:11:25;;;;;;;5.55;2.17;;;;;;;;;;5071235;28;20043;-67
2022/09/28 06:13:54;;;;;;;6.82;2.50;;;;;;;;;;5071676;28;20086;-66
2022/09/28 06:16:20;;;;;;;9.65;2.80;;;;;;;;;;5071852;28;20394;-65
2022/09/28 06:18:46;;;;;;;7.97;2.97;;;;;;;;;;5072792;28;20032;-66
2022/09/28 06:21:21;;;;;;;6.00;2.28;;;;;;;;;;5071121;28;20029;-68
2022/09/28 06:23:49;;;;;;;6.30;2.90;;;;;;;;;;5067359;28;20040;-69
2022/09/28 06:26:17;;;;;;;8.57;2.20;;;;;;;;;;5051119;28;20056;-68
2022/09/28 06:28:43;;;;;;;17.75;2.80;;;;;;;;;;5051086;28;20041;-67
2022/09/28 06:31:09;;;;;;;7.07;2.25;;;;;;;;;;5050935;28;20397;-66
2022/09/28 06:33:42;;;;;;;;;;;;;;;;;;5051288;28;20045;-64
2022/09/28 06:36:09;;;;;;;7.75;2.70;;;;;;;;;;5062105;28;19940;-68
2022/09/28 06:38:34;;;;;;;8.25;2.30;;;;;;;;;;5072170;28;20487;-67
2022/09/28 06:41:02;;;;;;;8.70;2.65;;;;;;;;;;5070219;28;20384;-67
2022/09/28 06:43:28;;;;;;;10.35;2.67;;;;;;;;;;5071938;28;20085;-66
2022/09/28 06:46:17;;;;;;;7.70;2.92;;;;;;;;;;5066352;28;20109;-65
2022/09/28 06:48:49;;;;;;;7.28;2.72;;;;;;;;;;5071937;28;20041;-65
2022/09/28 06:51:30;;;;;;;5.93;3.45;;;;;;;;;;5071123;28;20063;-65
2022/09/28 06:53:56;;;;;;;8.48;3.13;;;;;;;;;;5072298;28;20032;-66
2022/09/28 06:56:48;;;;;;;7.57;3.80;;;;;;;;;;5070499;28;20109;-66
2022/09/28 06:59:14;;;;;;;6.97;3.50;;;;;;;;;;5070989;28;20502;-67
2022/09/28 07:01:40;;;;;;;10.27;3.40;;;;;;;;;;5066747;28;20120;-67
2022/09/28 07:04:15;;;;;;;10.15;2.47;;;;;;;;;;5050583;28;20029;-67
2022/09/28 07:07:14;;;;;;;7.97;2.40;;;;;;;;;;5029150;28;20125;-67
2022/09/28 07:09:42;;;;;;;7.90;2.40;;;;;;;;;;5052533;28;20049;-65
2022/09/28 07:12:12;;;;;;;8.07;2.20;;;;;;;;;;5052007;28;20167;-65
2022/09/28 07:15:01;;;;;;;6.82;2.15;;;;;;;;;;5059149;28;20051;-66
2022/09/28 07:17:27;;;;;;;7.20;2.90;;;;;;;;;;5070778;28;20036;-65
2022/09/28 07:19:56;;;;;;;16.88;3.60;;;;;;;;;;5070778;28;20184;-67
2022/09/28 07:22:23;;;;;;;10.55;2.10;;;;;;;;;;5070566;28;20122;-68
2022/09/28 07:24:51;;;;;;;8.90;2.30;;;;;;;;;;5070804;28;20388;-67
2022/09/28 07:27:58;;;;;;;12.25;2.53;;;;;;;;;;5049230;28;20060;-65
2022/09/28 07:30:44;;;;;;;6.45;2.35;;;;;;;;;;5040810;28;20041;-66
2022/09/28 07:33:31;;;;;;;12.32;3.08;;;;;;;;;;5071679;28;20114;-65
2022/09/28 07:36:19;;;;;;;13.73;3.42;;;;;;;;;;5080861;28;20044;-66
2022/09/28 07:38:46;;;;;;;7.22;2.55;;;;;;;;;;5070471;28;20467;-65
2022/09/28 07:41:13;;;;;;;7.80;2.33;;;;;;;;;;5066779;28;20191;-65
2022/09/28 07:43:45;;;;;;;;;;;;;;;;;;5051355;28;20102;-65
2022/09/28 07:46:11;;;;;;;9.57;1.98;;;;;;;;;;5050289;28;19916;-65
2022/09/28 07:48:41;;;;;;;9.20;2.42;;;;;;;;;;5050353;28;20037;-65
2022/09/28 07:51:32;;;;;;;7.55;2.20;;;;;;;;;;5050445;28;20048;-64
2022/09/28 07:54:21;;;;;;;7.75;2.00;;;;;;;;;;5075206;28;20510;-66
2022/09/28 07:56:53;;;;;;;5.55;1.83;;;;;;;;;;5075138;28;20041;-65
2022/09/28 07:59:36;;;;;;;6.35;1.80;;;;;;;;;;5073747;28;20110;-66
2022/09/28 08:02:21;;;;;;;11.25;2.15;;;;;;;;;;5075092;28;20070;-66
2022/09/28 08:04:48;;;;;;;7.95;1.80;;;;;;;;;;5072962;28;20063;-65
2022/09/28 08:07:15;;;;;;;4.75;2.03;;;;;;;;;;5073544;28;20475;-65
2022/09/28 08:09:41;;;;;;;7.53;2.22;;;;;;;;;;5073635;28;20039;-66
2022/09/28 08:12:40;;;;;;;7.78;2.08;;;;;;;;;;5053641;28;20463;-65
2022/09/28 08:15:20;;;;;;;6.95;2.03;;;;;;;;;;5053753;28;20086;-65
2022/09/28 08:17:57;;;;;;;8.98;2.05;;;;;;;;;;5058999;28;20567;-65
2022/09/28 08:23:10;;;;;;;4.78;1.50;;;;;;;;;;5073455;28;20032;-66
2022/09/28 08:25:37;;;;;;;4.35;1.50;;;;;;;;;;5073250;28;20063;-65
2022/09/28 08:28:08;;;;;;;5.82;1.58;;;;;;;;;;5073468;28;20031;-65
2022/09/28 08:30:42;;;;;;;6.30;1.88;;;;;;;;;;5069445;28;20094;-66
2022/09/28 08:33:31;;;;;;;8.88;2.22;;;;;;;;;;5048616;28;20128;-66
2022/09/28 08:36:17;;;;;;;6.00;1.58;;;;;;;;;;5043252;28;20106;-65
2022/09/28 08:39:02;;;;;;;5.60;1.77;;;;;;;;;;5054381;28;20116;-65
2022/09/28 08:41:42;;;;;;;6.32;1.58;;;;;;;;;;5054400;28;20037;-65
2022/09/28 08:44:40;;;;;;;8.00;2.45;;;;;;;;;;5065088;28;20033;-67
2022/09/28 08:48:42;;;;;;;10.80;1.92;;;;;;;;;;5054481;28;20120;-67
2022/09/28 08:50:28;;;;;;;6.95;1.90;;;;;;;;;;5052770;28;20037;-66
2022/09/28 08:53:21;;;;;;;6.10;2.03;;;;;;;;;;5052728;28;20063;-66
2022/09/28 08:56:03;;;;;;;5.75;1.50;;;;;;;;;;5057724;28;20021;-68
2022/09/28 08:58:34;;;;;;;7.55;1.70;;;;;;;;;;5073019;28;20348;-69
2022/09/28 09:01:01;;;;;;;10.02;3.08;;;;;;;;;;5072755;28;20086;-67
2022/09/28 09:03:34;;;;;;;10.57;2.13;;;;;;;;;;5055386;28;20115;-66
2022/09/28 09:06:26;;;;;;;7.18;1.92;;;;;;;;;;5072623;28;20044;-67
2022/09/28 09:09:00;;;;;;;5.75;1.60;;;;;;;;;;5072175;28;20036;-67
2022/09/28 09:11:34;;;;;;;5.30;1.67;;;;;;;;;;5072476;28;20093;-66
2022/09/28 09:14:05;;;;;;;8.52;3.70;;;;;;;;;;5073966;28;20368;-64
2022/09/28 09:16:55;;;;;;;6.85;2.10;;;;;;;;;;5072599;28;20047;-67
2022/09/28 09:19:39;;;;;;;8.77;1.80;;;;;;;;;;5073546;28;20111;-66
2022/09/28 09:22:35;;;;;;;5.45;2.30;;;;;;;;;;5068457;28;20045;-67
2022/09/28 09:25:14;;;;;;;3.08;1.55;;;;;;;;;;5052620;28;20484;-65
2022/09/28 09:28:16;;;;;;;6.28;1.85;;;;;;;;;;5052126;28;20067;-65
2022/09/28 09:31:07;;;;;;;6.45;1.73;;;;;;;;;;5044104;28;20457;-66
2022/09/28 09:33:48;;;;;;;6.22;1.67;;;;;;;;;;5070498;28;20124;-66
2022/09/28 09:36:54;;;;;;;7.43;1.88;;;;;;;;;;5073711;28;20063;-66
2022/09/28 09:40:31;;;;;;;6.10;2.10;;;;;;;;;;5039608;28;20037;-67
2022/09/28 09:43:41;;;;;;;9.88;1.83;;;;;;;;;;5031481;28;20068;-66
2022/09/28 09:47:06;;;;;;;7.20;1.70;;;;;;;;;;5040316;28;20048;-66
2022/09/28 09:49:54;;;;;;;4.03;1.63;;;;;;;;;;5051933;28;20029;-66
2022/09/28 09:52:28;;;;;;;4.07;1.50;;;;;;;;;;5053260;28;20064;-66
2022/09/28 09:55:15;;;;;;;5.03;2.10;;;;;;;;;;5051903;28;20095;-66
2022/09/28 09:58:32;;;;;;;7.68;1.63;;;;;;;;;;5047652;28;20080;-65
2022/09/28 10:01:16;;;;;;;7.32;1.98;;;;;;;;;;5053141;28;20127;-65
2022/09/28 10:04:03;;;;;;;4.40;1.25;;;;;;;;;;5053294;28;20052;-66
2022/09/28 10:06:36;;;;;;;7.22;2.13;;;;;;;;;;5053261;28;20120;-64
2022/09/28 10:09:09;;;;;;;9.95;1.70;;;;;;;;;;5051899;28;20397;-66
2022/09/28 10:11:44;;;;;;;9.05;1.80;;;;;;;;;;5051568;28;20495;-66
2022/09/28 10:14:20;;;;;;;4.50;1.73;;;;;;;;;;5050745;28;20041;-66
2022/09/28 10:17:05;;;;;;;;;;;;;;;;;;5053496;28;20044;-65
2022/09/28 10:19:50;;;;;;;7.65;1.23;;;;;;;;;;5053117;28;19928;-65
2022/09/28 10:22:45;;;;;;;4.95;1.38;;;;;;;;;;5051621;28;20330;-67
2022/09/28 10:25:17;;;;;;;7.55;2.00;;;;;;;;;;5051671;28;20040;-65
2022/09/28 10:27:48;;;;;;;6.97;1.63;;;;;;;;;;5052951;28;20492;-66
2022/09/28 10:30:24;;;;;;;8.35;2.33;;;;;;;;;;5051452;28;20033;-68
2022/09/28 10:32:54;;;;;;;5.72;1.73;;;;;;;;;;5051352;28;20102;-65
2022/09/28 10:35:30;;;;;;;8.15;2.15;;;;;;;;;;5052588;28;20042;-65
2022/09/28 10:38:03;;;;;;;5.45;1.50;;;;;;;;;;5051304;28;20087;-66
2022/09/28 10:40:59;;;;;;;7.47;1.90;;;;;;;;;;5052136;28;20037;-65
2022/09/28 10:43:44;;;;;;;4.55;1.60;;;;;;;;;;5051573;28;20041;-66
2022/09/28 10:46:20;;;;;;;2.90;1.23;;;;;;;;;;5051369;28;20174;-66
2022/09/28 10:48:59;;;;;;;3.50;1.38;;;;;;;;;;5050955;28;20510;-66
2022/09/28 10:51:50;;;;;;;5.45;1.30;;;;;;;;;;5051293;28;20036;-66
2022/09/28 10:54:35;;;;;;;7.43;1.45;;;;;;;;;;5051136;28;20511;-67
2022/09/28 10:57:01;;;;;;;3.45;1.55;;;;;;;;;;5052507;28;20128;-66
2022/09/28 10:59:45;;;;;;;4.65;2.20;;;;;;;;;;5051309;28;20025;-66
2022/09/28 11:02:30;;;;;;;4.13;1.67;;;;;;;;;;5050982;28;20114;-65
2022/09/28 11:05:05;;;;;;;5.32;1.42;;;;;;;;;;5051045;28;20061;-66
2022/09/28 11:07:45;;;;;;;4.72;1.38;;;;;;;;;;5051456;28;20029;-66
2022/09/28 11:10:21;;;;;;;4.60;1.40;;;;;;;;;;5051484;28;20487;-65
2022/09/28 11:12:49;;;;;;;5.82;2.17;;;;;;;;;;5051088;28;20044;-65
2022/09/28 11:15:21;;;;;;;5.25;1.65;;;;;;;;;;5051568;28;20078;-66
2022/09/28 11:17:49;;;;;;;4.78;1.77;;;;;;;;;;5034781;28;20036;-66
2022/09/28 11:20:23;;;;;;;3.22;1.13;;;;;;;;;;5059600;28;20024;-65
2022/09/28 11:23:16;;;;;;;4.88;1.33;;;;;;;;;;5070595;28;20126;-65
2022/09/28 11:25:54;;;;;;;5.95;1.50;;;;;;;;;;5071150;28;20050;-65
2022/09/28 11:28:30;;;;;;;6.25;1.48;;;;;;;;;;5073978;28;20040;-66
2022/09/28 11:30:58;;;;;;;2.70;1.27;;;;;;;;;;5074202;28;20040;-66
2022/09/28 11:33:39;;;;;;;4.47;1.10;;;;;;;;;;5071754;28;20043;-66
2022/09/28 11:36:41;;;;;;;5.45;1.70;;;;;;;;;;5059162;28;20068;-66
2022/09/28 11:39:21;;;;;;;5.30;1.42;;;;;;;;;;5059657;28;20472;-66
2022/09/28 11:42:33;;;;;;;5.80;1.70;;;;;;;;;;5054102;28;20037;-66
2022/09/28 11:45:36;;;;;;;5.72;1.73;;;;;;;;;;5068682;28;20037;-66
2022/09/28 11:48:40;;;;;;;5.75;1.33;;;;;;;;;;5074010;28;20028;-66
2022/09/28 11:51:22;;;;;;;;;;;;;;;;;;5054258;28;20064;-65
2022/09/28 11:54:17;;;;;;;5.32;1.58;;;;;;;;;;5057580;28;19992;-66
2022/09/28 11:56:49;;;;;;;3.78;2.08;;;;;;;;;;5038675;28;20041;-66
2022/09/28 11:59:20;;;;;;;3.55;1.65;;;;;;;;;;5055574;28;20029;-69
2022/09/28 12:01:55;;;;;;;4.00;1.58;;;;;;;;;;5061159;28;20032;-67
2022/09/28 12:05:03;;;;;;;4.68;1.48;;;;;;;;;;5061973;28;20040;-66
2022/09/28 12:07:36;;;;;;;6.82;1.60;;;;;;;;;;5053606;28;20032;-66
2022/09/28 12:10:15;;;;;;;5.28;1.88;;;;;;;;;;5063563;28;20144;-66
2022/09/28 12:13:02;;;;;;;7.78;1.42;;;;;;;;;;5070839;28;20029;-65
2022/09/28 12:15:51;;;;;;;3.30;1.50;;;;;;;;;;5074752;28;20064;-66
2022/09/28 12:18:24;;;;;;;5.45;1.92;;;;;;;;;;5060413;28;20391;-68
2022/09/28 12:21:41;;;;;;;4.15;1.40;;;;;;;;;;5059747;28;20044;-66
2022/09/28 12:24:22;;;;;;;3.85;1.30;;;;;;;;;;5047518;28;20072;-67
2022/09/28 12:26:57;;;;;;;8.82;1.70;;;;;;;;;;5063926;28;20379;-66
2022/09/28 12:29:30;;;;;;;4.70;1.33;;;;;;;;;;5074193;28;20370;-67
2022/09/28 12:32:15;;;;;;;4.78;1.92;;;;;;;;;;5073627;28;20107;-67
2022/09/28 12:34:42;;;;;;;4.50;1.92;;;;;;;;;;5065689;28;20130;-67
2022/09/28 12:37:35;;;;;;;5.97;1.67;;;;;;;;;;5058467;28;20036;-68
2022/09/28 12:40:07;;;;;;;;;;;;;;;;;;5064945;28;20361;-67
2022/09/28 12:42:55;;;;;;;6.67;2.00;;;;;;;;;;5062631;28;20356;-67
2022/09/28 12:45:30;;;;;;;4.28;1.45;;;;;;;;;;5054999;28;20044;-67
2022/09/28 12:48:06;;;;;;;3.92;1.63;;;;;;;;;;5063524;28;20046;-68
2022/09/28 12:50:48;;;;;;;3.47;1.90;;;;;;;;;;5074612;28;20118;-68
2022/09/28 12:53:29;;;;;;;6.33;1.80;;;;;;;;;;5070645;28;20025;-66
2022/09/28 12:56:01;;;;;;;5.43;1.42;;;;;;;;;;5060929;28;20388;-66
2022/09/28 12:58:58;;;;;;;2.72;1.90;;;;;;;;;;5062296;28;20025;-67
2022/09/28 13:01:45;;;;;;;6.88;1.80;;;;;;;;;;5061593;28;20032;-67
2022/09/28 13:04:39;;;;;;;4.20;2.00;;;;;;;;;;5059559;28;20021;-67
2022/09/28 13:07:08;;;;;;;4.85;1.60;;;;;;;;;;5060312;28;20052;-66
2022/09/28 13:09:52;;;;;;;3.85;1.80;;;;;;;;;;5064835;28;20029;-67
2022/09/28 13:12:30;;;;;;;5.97;1.70;;;;;;;;;;5067185;28;20384;-69
2022/09/28 13:15:27;;;;;;;4.22;2.20;;;;;;;;;;5059377;28;20025;-68
2022/09/28 13:18:00;;;;;;;8.32;1.83;;;;;;;;;;5062647;28;20056;-67
2022/09/28 13:21:01;;;;;;;6.82;2.20;;;;;;;;;;5058964;28;20061;-66
2022/09/28 13:23:42;;;;;;;3.45;2.10;;;;;;;;;;5052055;28;20033;-68
2022/09/28 13:26:16;;;;;;;3.72;2.20;;;;;;;;;;5053737;28;20037;-67
2022/09/28 13:28:45;;;;;;;4.47;1.95;;;;;;;;;;5053885;28;20480;-66
2022/09/28 13:31:16;;;;;;;4.93;2.10;;;;;;;;;;5056405;28;20081;-66
2022/09/28 13:33:44;;;;;;;4.25;2.10;;;;;;;;;;5073491;28;20163;-66
2022/09/28 13:36:41;;;;;;;4.88;2.30;;;;;;;;;;5071157;28;20044;-66
2022/09/28 13:39:35;;;;;;;3.63;2.30;;;;;;;;;;5072366;28;20051;-65
2022/09/28 13:42:01;;;;;;;13.93;7.55;;;;;;;;;;5073240;28;20032;-65
2022/09/28 13:44:53;;;;;;;6.78;3.35;;;;;;;;;;5073202;28;20032;-65
2022/09/28 13:47:34;;;;;;;9.23;2.85;;;;;;;;;;5072968;28;20113;-65
2022/09/28 13:50:21;;;;;;;8.48;2.50;;;;;;;;;;5071621;28;20042;-65
2022/09/28 13:52:57;;;;;;;9.32;2.92;;;;;;;;;;5071464;28;20028;-65
2022/09/28 13:55:32;;;;;;;9.93;3.67;;;;;;;;;;5071863;28;20032;-65
2022/09/28 13:58:04;;;;;;;7.43;3.30;;;;;;;;;;5073482;28;20137;-68
2022/09/28 14:01:09;;;;;;;6.28;3.30;;;;;;;;;;5073257;28;20028;-66
2022/09/28 14:03:44;;;;;;;5.85;3.38;;;;;;;;;;5066659;28;20036;-66
2022/09/28 14:06:20;;;;;;;5.93;2.90;;;;;;;;;;5060789;28;20029;-65
2022/09/28 14:09:07;;;;;;;6.28;3.38;;;;;;;;;;5073320;28;20472;-65
2022/09/28 14:11:34;;;;;;;4.28;2.63;;;;;;;;;;5071555;28;20032;-65
2022/09/28 14:14:10;;;;;;;5.75;3.05;;;;;;;;;;5072918;28;20028;-66
2022/09/28 14:16:38;;;;;;;6.10;2.83;;;;;;;;;;5072982;28;20036;-65
2022/09/28 14:19:09;;;;;;;8.27;3.83;;;;;;;;;;5069224;28;20029;-65
2022/09/28 14:22:07;;;;;;;6.15;3.15;;;;;;;;;;5067342;28;20464;-66
2022/09/28 14:24:58;;;;;;;9.45;2.95;;;;;;;;;;5070687;28;20131;-67
2022/09/28 14:27:36;;;;;;;9.00;3.10;;;;;;;;;;5070819;28;20044;-66
2022/09/28 14:30:15;;;;;;;7.38;3.45;;;;;;;;;;5071745;28;20037;-67
2022/09/28 14:32:51;;;;;;;5.97;2.47;;;;;;;;;;5071434;28;20162;-65
2022/09/28 14:35:31;;;;;;;7.63;2.80;;;;;;;;;;5078514;28;20055;-66
2022/09/28 14:41:40;;;;;;;5.57;2.88;;;;;;;;;;5070922;28;20082;-66
2022/09/28 14:44:09;;;;;;;4.60;3.40;;;;;;;;;;5072554;28;20024;-68
2022/09/28 14:46:35;;;;;;;3.70;3.28;;;;;;;;;;5069637;28;20119;-67
2022/09/28 14:49:18;;;;;;;4.68;3.22;;;;;;;;;;5073056;28;20371;-65
2022/09/28 14:51:47;;;;;;;5.32;2.90;;;;;;;;;;5067645;28;20041;-65
2022/09/28 14:54:21;;;;;;;7.75;3.60;;;;;;;;;;5092594;28;20028;-65
2022/09/28 14:56:53;;;;;;;7.55;3.67;;;;;;;;;;5092655;28;20390;-66
2022/09/28 14:59:24;;;;;;;6.93;4.63;;;;;;;;;;5089563;28;20595;-66
2022/09/28 15:01:54;;;;;;;6.28;3.50;;;;;;;;;;5083384;28;20036;-66
2022/09/28 15:04:21;;;;;;;5.63;3.47;;;;;;;;;;5071117;28;20031;-67
2022/09/28 15:06:50;;;;;;;9.70;3.35;;;;;;;;;;5064717;28;20041;-66
2022/09/28 15:09:33;;;;;;;8.57;3.40;;;;;;;;;;5061802;28;20032;-66
2022/09/28 15:12:04;;;;;;;5.80;3.55;;;;;;;;;;5060299;28;20036;-66
2022/09/28 15:14:40;;;;;;;7.75;4.05;;;;;;;;;;5067009;28;20090;-67
2022/09/28 15:17:11;;;;;;;4.90;3.60;;;;;;;;;;5071737;28;20032;-66
2022/09/28 15:19:59;;;;;;;8.07;3.25;;;;;;;;;;5071128;28;20043;-67
2022/09/28 15:22:26;;;;;;;5.93;4.15;;;;;;;;;;5070102;28;20090;-66
2022/09/28 15:24:56;;;;;;;9.77;4.68;;;;;;;;;;5058525;28;20017;-67
2022/09/28 15:27:22;;;;;;;10.63;4.28;;;;;;;;;;5063415;28;20025;-65
2022/09/28 15:29:59;;;;;;;8.55;4.63;;;;;;;;;;5062706;28;20456;-66
2022/09/28 15:32:28;;;;;;;9.68;4.63;;;;;;;;;;5059299;28;20035;-67
2022/09/28 15:34:55;;;;;;;7.68;3.42;;;;;;;;;;5054465;28;20091;-65
2022/09/28 15:37:34;;;;;;;7.28;4.00;;;;;;;;;;5065113;28;20078;-66
2022/09/28 15:40:01;;;;;;;6.13;3.70;;;;;;;;;;5071885;28;20032;-68
2022/09/28 15:42:36;;;;;;;7.95;4.18;;;;;;;;;;5070847;28;20116;-67
2022/09/28 15:45:25;;;;;;;6.18;3.90;;;;;;;;;;5069070;28;20054;-67
2022/09/28 15:48:16;;;;;;;7.13;4.38;;;;;;;;;;5068632;28;20067;-68